EDXW/GWT METAR and TAF weather

Enter ICAO airport designator
Station Type Date Time Source
EDXW METAR 2022/07/03 15:20 UTC NOAA

EDXW 031520Z 29010KT 250V310 9999 FEW015 19/14 Q1016


Station Type Date Time Source
EDXW Decoded METAR 2022/07/03 15:20 UTC NOAA

Westerland / Sylt, Germany (EDXW) 54-55N 008-21E 20M
Jul 03, 2022 - 11:20 AM EDT / 2022.07.03 1520 UTC
Wind: from the WNW (290 degrees) at 12 MPH (10 KT) (direction variable):0
Visibility: greater than 7 mile(s):0
Sky conditions: mostly clear
Temperature: 66 F (19 C)
Dew Point: 57 F (14 C)
Relative Humidity: 72%
Pressure (altimeter): 30.00 in. Hg (1016 hPa)
ob: EDXW 031520Z 29010KT 250V310 9999 FEW015 19/14 Q1016
cycle: 15

Station Type Date Time Source
EDXW TAF 2009/07/07 14:00 UTC NOAA

TAF EDXW 071400Z 0715/0719 22015G25KT 9999 SCT020

Example: see airport list